sensor_id;sensor_type;location;lat;lon;timestamp;P1;durP1;ratioP1;P2;durP2;ratioP2
55216;SDS011;41086;46.736;15.666;2023-04-15T00:00:57;10.88;;;6.20;;
55216;SDS011;41086;46.736;15.666;2023-04-15T00:03:25;10.45;;;4.97;;
55216;SDS011;41086;46.736;15.666;2023-04-15T00:05:52;14.93;;;8.02;;
55216;SDS011;41086;46.736;15.666;2023-04-15T00:08:19;5.18;;;3.42;;
55216;SDS011;41086;46.736;15.666;2023-04-15T00:10:46;21.98;;;12.40;;
55216;SDS011;41086;46.736;15.666;2023-04-15T00:13:13;7.70;;;4.13;;
55216;SDS011;41086;46.736;15.666;2023-04-15T00:15:40;17.92;;;10.38;;
55216;SDS011;41086;46.736;15.666;2023-04-15T00:18:08;30.52;;;17.33;;
55216;SDS011;41086;46.736;15.666;2023-04-15T00:20:35;15.15;;;7.25;;
55216;SDS011;41086;46.736;15.666;2023-04-15T00:23:03;5.38;;;2.95;;
55216;SDS011;41086;46.736;15.666;2023-04-15T00:25:30;9.95;;;4.75;;
55216;SDS011;41086;46.736;15.666;2023-04-15T00:27:57;21.85;;;11.02;;
55216;SDS011;41086;46.736;15.666;2023-04-15T00:30:24;14.90;;;7.72;;
55216;SDS011;41086;46.736;15.666;2023-04-15T00:32:51;17.50;;;9.52;;
55216;SDS011;41086;46.736;15.666;2023-04-15T00:35:20;22.48;;;11.07;;
55216;SDS011;41086;46.736;15.666;2023-04-15T00:37:49;12.10;;;6.57;;
55216;SDS011;41086;46.736;15.666;2023-04-15T00:40:17;4.20;;;2.47;;
55216;SDS011;41086;46.736;15.666;2023-04-15T00:42:45;5.28;;;3.30;;
55216;SDS011;41086;46.736;15.666;2023-04-15T00:45:12;4.03;;;2.50;;
55216;SDS011;41086;46.736;15.666;2023-04-15T00:50:10;1.83;;;1.10;;
55216;SDS011;41086;46.736;15.666;2023-04-15T00:52:38;3.40;;;1.60;;
55216;SDS011;41086;46.736;15.666;2023-04-15T00:55:06;1.98;;;1.17;;
55216;SDS011;41086;46.736;15.666;2023-04-15T00:57:34;2.60;;;1.77;;
55216;SDS011;41086;46.736;15.666;2023-04-15T01:00:02;2.25;;;1.52;;
55216;SDS011;41086;46.736;15.666;2023-04-15T01:02:34;2.78;;;1.40;;
55216;SDS011;41086;46.736;15.666;2023-04-15T01:05:02;1.42;;;1.08;;
55216;SDS011;41086;46.736;15.666;2023-04-15T01:07:30;3.63;;;1.23;;
55216;SDS011;41086;46.736;15.666;2023-04-15T01:09:57;1.58;;;1.00;;
55216;SDS011;41086;46.736;15.666;2023-04-15T01:14:52;1.17;;;0.70;;
55216;SDS011;41086;46.736;15.666;2023-04-15T01:17:19;1.08;;;0.68;;
55216;SDS011;41086;46.736;15.666;2023-04-15T01:19:46;1.38;;;0.80;;
55216;SDS011;41086;46.736;15.666;2023-04-15T01:24:41;1.85;;;0.80;;
55216;SDS011;41086;46.736;15.666;2023-04-15T01:27:17;1.58;;;0.65;;
55216;SDS011;41086;46.736;15.666;2023-04-15T01:32:11;4.32;;;0.80;;
55216;SDS011;41086;46.736;15.666;2023-04-15T01:34:38;2.75;;;0.60;;
55216;SDS011;41086;46.736;15.666;2023-04-15T01:37:04;4.03;;;1.30;;
55216;SDS011;41086;46.736;15.666;2023-04-15T01:39:31;1.35;;;0.80;;
55216;SDS011;41086;46.736;15.666;2023-04-15T01:41:59;2.22;;;1.25;;
55216;SDS011;41086;46.736;15.666;2023-04-15T01:44:25;2.60;;;0.80;;
55216;SDS011;41086;46.736;15.666;2023-04-15T01:46:53;1.25;;;0.88;;
55216;SDS011;41086;46.736;15.666;2023-04-15T01:49:19;2.13;;;1.08;;
55216;SDS011;41086;46.736;15.666;2023-04-15T01:51:46;1.95;;;1.30;;
55216;SDS011;41086;46.736;15.666;2023-04-15T01:54:13;2.40;;;1.40;;
55216;SDS011;41086;46.736;15.666;2023-04-15T01:56:40;2.38;;;1.20;;
55216;SDS011;41086;46.736;15.666;2023-04-15T01:59:08;2.58;;;1.45;;
55216;SDS011;41086;46.736;15.666;2023-04-15T02:01:36;2.33;;;1.38;;
55216;SDS011;41086;46.736;15.666;2023-04-15T02:04:03;2.35;;;1.30;;
55216;SDS011;41086;46.736;15.666;2023-04-15T02:06:30;2.40;;;1.67;;
55216;SDS011;41086;46.736;15.666;2023-04-15T02:08:57;2.67;;;1.75;;
55216;SDS011;41086;46.736;15.666;2023-04-15T02:11:24;2.85;;;1.80;;
55216;SDS011;41086;46.736;15.666;2023-04-15T02:13:51;3.20;;;1.52;;
55216;SDS011;41086;46.736;15.666;2023-04-15T02:16:18;4.72;;;1.70;;
55216;SDS011;41086;46.736;15.666;2023-04-15T02:18:45;4.07;;;1.45;;
55216;SDS011;41086;46.736;15.666;2023-04-15T02:21:12;3.17;;;1.80;;
55216;SDS011;41086;46.736;15.666;2023-04-15T02:23:40;2.63;;;1.58;;
55216;SDS011;41086;46.736;15.666;2023-04-15T02:26:06;2.00;;;1.35;;
55216;SDS011;41086;46.736;15.666;2023-04-15T02:28:33;4.00;;;1.60;;
55216;SDS011;41086;46.736;15.666;2023-04-15T02:33:31;2.10;;;1.40;;
55216;SDS011;41086;46.736;15.666;2023-04-15T02:35:59;2.25;;;1.50;;
55216;SDS011;41086;46.736;15.666;2023-04-15T02:38:27;2.30;;;1.30;;
55216;SDS011;41086;46.736;15.666;2023-04-15T02:40:54;3.35;;;1.52;;
55216;SDS011;41086;46.736;15.666;2023-04-15T02:43:20;3.00;;;1.40;;
55216;SDS011;41086;46.736;15.666;2023-04-15T02:45:49;3.75;;;1.40;;
55216;SDS011;41086;46.736;15.666;2023-04-15T02:50:45;2.42;;;1.30;;
55216;SDS011;41086;46.736;15.666;2023-04-15T02:53:14;2.10;;;1.08;;
55216;SDS011;41086;46.736;15.666;2023-04-15T02:55:41;2.53;;;1.20;;
55216;SDS011;41086;46.736;15.666;2023-04-15T02:58:08;2.47;;;1.42;;
55216;SDS011;41086;46.736;15.666;2023-04-15T03:00:35;2.95;;;1.75;;
55216;SDS011;41086;46.736;15.666;2023-04-15T03:03:03;3.70;;;1.90;;
55216;SDS011;41086;46.736;15.666;2023-04-15T03:05:31;4.97;;;2.05;;
55216;SDS011;41086;46.736;15.666;2023-04-15T03:08:00;2.88;;;1.90;;
55216;SDS011;41086;46.736;15.666;2023-04-15T03:10:28;5.15;;;1.95;;
55216;SDS011;41086;46.736;15.666;2023-04-15T03:15:22;3.58;;;1.80;;
55216;SDS011;41086;46.736;15.666;2023-04-15T03:17:51;4.00;;;2.25;;
55216;SDS011;41086;46.736;15.666;2023-04-15T03:20:18;2.85;;;1.40;;
55216;SDS011;41086;46.736;15.666;2023-04-15T03:22:46;2.33;;;1.33;;
55216;SDS011;41086;46.736;15.666;2023-04-15T03:25:13;2.80;;;1.63;;
55216;SDS011;41086;46.736;15.666;2023-04-15T03:27:41;2.72;;;1.80;;
55216;SDS011;41086;46.736;15.666;2023-04-15T03:30:09;2.42;;;1.63;;
55216;SDS011;41086;46.736;15.666;2023-04-15T03:32:37;3.85;;;1.70;;
55216;SDS011;41086;46.736;15.666;2023-04-15T03:35:06;3.08;;;1.70;;
55216;SDS011;41086;46.736;15.666;2023-04-15T03:37:33;3.58;;;2.05;;
55216;SDS011;41086;46.736;15.666;2023-04-15T03:40:00;3.47;;;2.20;;
55216;SDS011;41086;46.736;15.666;2023-04-15T03:44:53;3.83;;;2.28;;
55216;SDS011;41086;46.736;15.666;2023-04-15T03:47:20;3.58;;;2.63;;
55216;SDS011;41086;46.736;15.666;2023-04-15T03:49:47;3.65;;;2.20;;
55216;SDS011;41086;46.736;15.666;2023-04-15T03:52:14;4.70;;;2.60;;
55216;SDS011;41086;46.736;15.666;2023-04-15T03:54:40;4.65;;;2.65;;
55216;SDS011;41086;46.736;15.666;2023-04-15T03:57:07;6.20;;;2.90;;
55216;SDS011;41086;46.736;15.666;2023-04-15T03:59:34;3.45;;;2.58;;
55216;SDS011;41086;46.736;15.666;2023-04-15T04:02:01;3.80;;;2.67;;
55216;SDS011;41086;46.736;15.666;2023-04-15T04:04:28;4.70;;;2.88;;
55216;SDS011;41086;46.736;15.666;2023-04-15T04:06:55;5.22;;;2.80;;
55216;SDS011;41086;46.736;15.666;2023-04-15T04:09:21;4.65;;;3.08;;
55216;SDS011;41086;46.736;15.666;2023-04-15T04:11:48;4.00;;;2.72;;
55216;SDS011;41086;46.736;15.666;2023-04-15T04:14:15;4.70;;;3.65;;
55216;SDS011;41086;46.736;15.666;2023-04-15T04:16:42;4.15;;;2.90;;
55216;SDS011;41086;46.736;15.666;2023-04-15T04:19:10;6.03;;;3.42;;
55216;SDS011;41086;46.736;15.666;2023-04-15T04:21:36;4.80;;;3.47;;
55216;SDS011;41086;46.736;15.666;2023-04-15T04:24:04;4.88;;;2.97;;
55216;SDS011;41086;46.736;15.666;2023-04-15T04:26:31;30.85;;;21.98;;
55216;SDS011;41086;46.736;15.666;2023-04-15T04:28:58;8.15;;;4.72;;
55216;SDS011;41086;46.736;15.666;2023-04-15T04:31:26;4.35;;;2.80;;
55216;SDS011;41086;46.736;15.666;2023-04-15T04:33:53;5.40;;;3.30;;
55216;SDS011;41086;46.736;15.666;2023-04-15T04:36:20;4.72;;;2.95;;
55216;SDS011;41086;46.736;15.666;2023-04-15T04:38:47;4.97;;;3.47;;
55216;SDS011;41086;46.736;15.666;2023-04-15T04:41:14;6.35;;;3.22;;
55216;SDS011;41086;46.736;15.666;2023-04-15T04:43:41;4.05;;;3.00;;
55216;SDS011;41086;46.736;15.666;2023-04-15T04:46:08;4.85;;;2.75;;
55216;SDS011;41086;46.736;15.666;2023-04-15T04:48:35;5.45;;;3.20;;
55216;SDS011;41086;46.736;15.666;2023-04-15T04:51:02;4.63;;;3.10;;
55216;SDS011;41086;46.736;15.666;2023-04-15T04:53:29;4.97;;;3.38;;
55216;SDS011;41086;46.736;15.666;2023-04-15T04:55:56;6.30;;;3.67;;
55216;SDS011;41086;46.736;15.666;2023-04-15T05:00:50;5.32;;;3.70;;
55216;SDS011;41086;46.736;15.666;2023-04-15T05:03:17;5.65;;;3.72;;
55216;SDS011;41086;46.736;15.666;2023-04-15T05:05:44;5.43;;;3.78;;
55216;SDS011;41086;46.736;15.666;2023-04-15T05:08:11;5.05;;;3.60;;
55216;SDS011;41086;46.736;15.666;2023-04-15T05:10:38;6.38;;;4.30;;
55216;SDS011;41086;46.736;15.666;2023-04-15T05:13:05;6.72;;;4.43;;
55216;SDS011;41086;46.736;15.666;2023-04-15T05:15:32;7.65;;;5.15;;
55216;SDS011;41086;46.736;15.666;2023-04-15T05:18:00;7.63;;;4.82;;
55216;SDS011;41086;46.736;15.666;2023-04-15T05:20:27;6.90;;;5.75;;
55216;SDS011;41086;46.736;15.666;2023-04-15T05:25:21;9.77;;;5.90;;
55216;SDS011;41086;46.736;15.666;2023-04-15T05:27:48;7.95;;;5.38;;
55216;SDS011;41086;46.736;15.666;2023-04-15T05:30:15;7.88;;;5.43;;
55216;SDS011;41086;46.736;15.666;2023-04-15T05:32:42;8.68;;;4.90;;
55216;SDS011;41086;46.736;15.666;2023-04-15T05:35:09;7.50;;;5.38;;
55216;SDS011;41086;46.736;15.666;2023-04-15T05:37:35;8.90;;;6.32;;
55216;SDS011;41086;46.736;15.666;2023-04-15T05:40:02;8.18;;;5.22;;
55216;SDS011;41086;46.736;15.666;2023-04-15T05:42:29;7.95;;;5.47;;
55216;SDS011;41086;46.736;15.666;2023-04-15T05:44:56;7.82;;;5.35;;
55216;SDS011;41086;46.736;15.666;2023-04-15T05:47:23;9.82;;;5.40;;
55216;SDS011;41086;46.736;15.666;2023-04-15T05:49:50;8.75;;;4.63;;
55216;SDS011;41086;46.736;15.666;2023-04-15T05:52:17;7.53;;;5.28;;
55216;SDS011;41086;46.736;15.666;2023-04-15T05:54:43;10.32;;;6.82;;
55216;SDS011;41086;46.736;15.666;2023-04-15T05:57:10;7.53;;;5.28;;
55216;SDS011;41086;46.736;15.666;2023-04-15T05:59:37;7.50;;;5.82;;
55216;SDS011;41086;46.736;15.666;2023-04-15T06:02:04;10.13;;;5.93;;
55216;SDS011;41086;46.736;15.666;2023-04-15T06:06:58;8.18;;;5.85;;
55216;SDS011;41086;46.736;15.666;2023-04-15T06:09:25;9.18;;;6.15;;
55216;SDS011;41086;46.736;15.666;2023-04-15T06:11:52;7.88;;;6.30;;
55216;SDS011;41086;46.736;15.666;2023-04-15T06:14:18;11.65;;;6.93;;
55216;SDS011;41086;46.736;15.666;2023-04-15T06:16:45;8.45;;;5.75;;
55216;SDS011;41086;46.736;15.666;2023-04-15T06:19:12;10.02;;;5.53;;
55216;SDS011;41086;46.736;15.666;2023-04-15T06:24:06;7.70;;;5.72;;
55216;SDS011;41086;46.736;15.666;2023-04-15T06:26:33;11.07;;;7.05;;
55216;SDS011;41086;46.736;15.666;2023-04-15T06:29:00;9.60;;;6.43;;
55216;SDS011;41086;46.736;15.666;2023-04-15T06:31:27;9.65;;;7.45;;
55216;SDS011;41086;46.736;15.666;2023-04-15T06:33:54;9.85;;;7.35;;
55216;SDS011;41086;46.736;15.666;2023-04-15T06:36:21;10.10;;;7.47;;
55216;SDS011;41086;46.736;15.666;2023-04-15T06:38:47;8.95;;;7.15;;
55216;SDS011;41086;46.736;15.666;2023-04-15T06:41:14;12.52;;;8.32;;
55216;SDS011;41086;46.736;15.666;2023-04-15T06:46:08;10.50;;;8.52;;
55216;SDS011;41086;46.736;15.666;2023-04-15T06:51:02;9.98;;;8.10;;
55216;SDS011;41086;46.736;15.666;2023-04-15T06:53:29;11.85;;;8.65;;
55216;SDS011;41086;46.736;15.666;2023-04-15T06:55:56;12.13;;;8.63;;
55216;SDS011;41086;46.736;15.666;2023-04-15T06:58:23;11.35;;;8.23;;
55216;SDS011;41086;46.736;15.666;2023-04-15T07:00:49;12.85;;;9.40;;
55216;SDS011;41086;46.736;15.666;2023-04-15T07:03:17;10.95;;;8.25;;
55216;SDS011;41086;46.736;15.666;2023-04-15T07:05:44;13.25;;;9.45;;
55216;SDS011;41086;46.736;15.666;2023-04-15T07:08:11;17.02;;;10.63;;
55216;SDS011;41086;46.736;15.666;2023-04-15T07:10:37;12.32;;;9.27;;
55216;SDS011;41086;46.736;15.666;2023-04-15T07:13:04;11.77;;;8.82;;
55216;SDS011;41086;46.736;15.666;2023-04-15T07:15:33;16.08;;;10.18;;
55216;SDS011;41086;46.736;15.666;2023-04-15T07:17:59;11.90;;;8.85;;
55216;SDS011;41086;46.736;15.666;2023-04-15T07:20:27;12.35;;;9.10;;
55216;SDS011;41086;46.736;15.666;2023-04-15T07:22:53;14.20;;;9.43;;
55216;SDS011;41086;46.736;15.666;2023-04-15T07:25:20;17.77;;;10.02;;
55216;SDS011;41086;46.736;15.666;2023-04-15T07:27:47;12.75;;;9.20;;
55216;SDS011;41086;46.736;15.666;2023-04-15T07:30:14;17.27;;;9.85;;
55216;SDS011;41086;46.736;15.666;2023-04-15T07:32:42;13.23;;;9.52;;
55216;SDS011;41086;46.736;15.666;2023-04-15T07:35:09;9.70;;;7.65;;
55216;SDS011;41086;46.736;15.666;2023-04-15T07:37:37;12.75;;;8.13;;
55216;SDS011;41086;46.736;15.666;2023-04-15T07:42:33;14.02;;;9.55;;
55216;SDS011;41086;46.736;15.666;2023-04-15T07:45:00;11.27;;;9.00;;
55216;SDS011;41086;46.736;15.666;2023-04-15T07:47:28;12.18;;;9.02;;
55216;SDS011;41086;46.736;15.666;2023-04-15T07:50:02;13.05;;;8.27;;
55216;SDS011;41086;46.736;15.666;2023-04-15T07:52:31;10.35;;;8.43;;
55216;SDS011;41086;46.736;15.666;2023-04-15T07:55:06;13.45;;;8.43;;
55216;SDS011;41086;46.736;15.666;2023-04-15T07:57:34;10.25;;;8.00;;
55216;SDS011;41086;46.736;15.666;2023-04-15T08:00:03;11.93;;;8.00;;
55216;SDS011;41086;46.736;15.666;2023-04-15T08:02:38;11.45;;;8.48;;
55216;SDS011;41086;46.736;15.666;2023-04-15T08:05:06;13.10;;;8.90;;
55216;SDS011;41086;46.736;15.666;2023-04-15T08:07:33;12.10;;;8.60;;
55216;SDS011;41086;46.736;15.666;2023-04-15T08:12:27;10.57;;;8.02;;
55216;SDS011;41086;46.736;15.666;2023-04-15T08:14:54;12.90;;;8.27;;
55216;SDS011;41086;46.736;15.666;2023-04-15T08:17:25;11.50;;;7.93;;
55216;SDS011;41086;46.736;15.666;2023-04-15T08:19:52;10.95;;;8.07;;
55216;SDS011;41086;46.736;15.666;2023-04-15T08:22:19;9.25;;;6.55;;
55216;SDS011;41086;46.736;15.666;2023-04-15T08:24:48;12.43;;;8.65;;
55216;SDS011;41086;46.736;15.666;2023-04-15T08:27:14;13.25;;;8.90;;
55216;SDS011;41086;46.736;15.666;2023-04-15T08:32:09;9.80;;;7.60;;
55216;SDS011;41086;46.736;15.666;2023-04-15T08:34:37;10.85;;;7.22;;
55216;SDS011;41086;46.736;15.666;2023-04-15T08:37:04;9.90;;;6.75;;
55216;SDS011;41086;46.736;15.666;2023-04-15T08:39:32;9.23;;;7.45;;
55216;SDS011;41086;46.736;15.666;2023-04-15T08:42:00;9.65;;;6.75;;
55216;SDS011;41086;46.736;15.666;2023-04-15T08:44:28;7.85;;;5.13;;
55216;SDS011;41086;46.736;15.666;2023-04-15T08:47:01;9.18;;;5.82;;
55216;SDS011;41086;46.736;15.666;2023-04-15T08:49:31;11.20;;;7.03;;
55216;SDS011;41086;46.736;15.666;2023-04-15T08:51:58;10.38;;;7.00;;
55216;SDS011;41086;46.736;15.666;2023-04-15T08:54:26;10.73;;;7.05;;
55216;SDS011;41086;46.736;15.666;2023-04-15T08:56:53;8.80;;;6.28;;
55216;SDS011;41086;46.736;15.666;2023-04-15T08:59:20;11.18;;;6.50;;
55216;SDS011;41086;46.736;15.666;2023-04-15T09:01:48;7.18;;;5.57;;
55216;SDS011;41086;46.736;15.666;2023-04-15T09:04:16;9.18;;;5.22;;
55216;SDS011;41086;46.736;15.666;2023-04-15T09:09:11;9.93;;;5.70;;
55216;SDS011;41086;46.736;15.666;2023-04-15T09:11:39;10.80;;;6.82;;
55216;SDS011;41086;46.736;15.666;2023-04-15T09:14:07;12.75;;;6.07;;
55216;SDS011;41086;46.736;15.666;2023-04-15T09:19:24;8.07;;;6.05;;
55216;SDS011;41086;46.736;15.666;2023-04-15T09:21:55;8.52;;;6.15;;
55216;SDS011;41086;46.736;15.666;2023-04-15T09:24:25;6.75;;;5.53;;
55216;SDS011;41086;46.736;15.666;2023-04-15T09:27:03;10.57;;;7.28;;
55216;SDS011;41086;46.736;15.666;2023-04-15T09:29:29;9.10;;;6.03;;
55216;SDS011;41086;46.736;15.666;2023-04-15T09:32:08;9.45;;;6.50;;
55216;SDS011;41086;46.736;15.666;2023-04-15T09:34:37;8.10;;;6.45;;
55216;SDS011;41086;46.736;15.666;2023-04-15T09:39:49;4.93;;;3.00;;
55216;SDS011;41086;46.736;15.666;2023-04-15T09:42:17;5.55;;;3.38;;
55216;SDS011;41086;46.736;15.666;2023-04-15T09:44:52;5.47;;;3.97;;
55216;SDS011;41086;46.736;15.666;2023-04-15T09:47:29;16.08;;;9.00;;
55216;SDS011;41086;46.736;15.666;2023-04-15T09:49:57;14.57;;;7.95;;
55216;SDS011;41086;46.736;15.666;2023-04-15T09:52:25;15.88;;;8.10;;
55216;SDS011;41086;46.736;15.666;2023-04-15T09:54:52;7.28;;;2.58;;
55216;SDS011;41086;46.736;15.666;2023-04-15T09:57:23;20.75;;;11.00;;
55216;SDS011;41086;46.736;15.666;2023-04-15T09:59:50;16.92;;;8.95;;
55216;SDS011;41086;46.736;15.666;2023-04-15T10:02:18;13.43;;;6.65;;
55216;SDS011;41086;46.736;15.666;2023-04-15T10:04:48;13.52;;;7.78;;
55216;SDS011;41086;46.736;15.666;2023-04-15T10:07:17;3.60;;;2.42;;
55216;SDS011;41086;46.736;15.666;2023-04-15T10:09:47;11.82;;;5.32;;
55216;SDS011;41086;46.736;15.666;2023-04-15T10:12:17;7.95;;;4.20;;
55216;SDS011;41086;46.736;15.666;2023-04-15T10:14:47;3.90;;;2.22;;
55216;SDS011;41086;46.736;15.666;2023-04-15T10:17:22;1.42;;;0.60;;
55216;SDS011;41086;46.736;15.666;2023-04-15T10:19:52;2.33;;;1.40;;
55216;SDS011;41086;46.736;15.666;2023-04-15T10:22:21;1.23;;;0.75;;
55216;SDS011;41086;46.736;15.666;2023-04-15T10:24:49;0.77;;;0.38;;
55216;SDS011;41086;46.736;15.666;2023-04-15T10:27:17;1.63;;;0.50;;
55216;SDS011;41086;46.736;15.666;2023-04-15T10:29:45;0.82;;;0.40;;
55216;SDS011;41086;46.736;15.666;2023-04-15T10:32:13;0.88;;;0.50;;
55216;SDS011;41086;46.736;15.666;2023-04-15T10:34:41;2.97;;;1.50;;
55216;SDS011;41086;46.736;15.666;2023-04-15T10:39:37;0.20;;;0.20;;
55216;SDS011;41086;46.736;15.666;2023-04-15T10:44:32;3.90;;;1.35;;
55216;SDS011;41086;46.736;15.666;2023-04-15T10:47:03;0.95;;;0.70;;
55216;SDS011;41086;46.736;15.666;2023-04-15T10:49:36;6.28;;;0.45;;
55216;SDS011;41086;46.736;15.666;2023-04-15T10:52:10;0.60;;;0.40;;
55216;SDS011;41086;46.736;15.666;2023-04-15T10:54:37;0.45;;;0.30;;
55216;SDS011;41086;46.736;15.666;2023-04-15T10:59:36;0.43;;;0.30;;
55216;SDS011;41086;46.736;15.666;2023-04-15T11:02:05;0.90;;;0.40;;
55216;SDS011;41086;46.736;15.666;2023-04-15T11:12:38;0.80;;;0.50;;
55216;SDS011;41086;46.736;15.666;2023-04-15T11:15:26;1.67;;;0.40;;
55216;SDS011;41086;46.736;15.666;2023-04-15T11:18:09;0.65;;;0.40;;
55216;SDS011;41086;46.736;15.666;2023-04-15T11:20:42;3.88;;;0.43;;
55216;SDS011;41086;46.736;15.666;2023-04-15T11:23:10;1.40;;;0.40;;
55216;SDS011;41086;46.736;15.666;2023-04-15T11:25:42;0.93;;;0.30;;
55216;SDS011;41086;46.736;15.666;2023-04-15T11:28:09;1.48;;;0.57;;
55216;SDS011;41086;46.736;15.666;2023-04-15T11:30:38;1.13;;;0.65;;
55216;SDS011;41086;46.736;15.666;2023-04-15T11:33:06;1.00;;;0.55;;
55216;SDS011;41086;46.736;15.666;2023-04-15T11:35:34;12.25;;;2.78;;
55216;SDS011;41086;46.736;15.666;2023-04-15T11:38:02;2.65;;;0.70;;
55216;SDS011;41086;46.736;15.666;2023-04-15T11:40:30;7.03;;;3.17;;
55216;SDS011;41086;46.736;15.666;2023-04-15T11:43:07;1.75;;;0.90;;
55216;SDS011;41086;46.736;15.666;2023-04-15T11:45:54;2.38;;;1.17;;
55216;SDS011;41086;46.736;15.666;2023-04-15T11:48:22;1.40;;;0.75;;
55216;SDS011;41086;46.736;15.666;2023-04-15T11:50:55;0.63;;;0.32;;
55216;SDS011;41086;46.736;15.666;2023-04-15T11:53:35;0.70;;;0.40;;
55216;SDS011;41086;46.736;15.666;2023-04-15T11:56:09;0.30;;;0.30;;
55216;SDS011;41086;46.736;15.666;2023-04-15T11:58:37;0.80;;;0.40;;
55216;SDS011;41086;46.736;15.666;2023-04-15T12:01:05;0.70;;;0.50;;
55216;SDS011;41086;46.736;15.666;2023-04-15T12:03:39;1.05;;;0.60;;
55216;SDS011;41086;46.736;15.666;2023-04-15T12:06:15;0.30;;;0.30;;
55216;SDS011;41086;46.736;15.666;2023-04-15T12:08:55;0.20;;;0.20;;
55216;SDS011;41086;46.736;15.666;2023-04-15T12:11:42;0.40;;;0.35;;
55216;SDS011;41086;46.736;15.666;2023-04-15T12:16:59;0.65;;;0.40;;
55216;SDS011;41086;46.736;15.666;2023-04-15T12:19:28;0.47;;;0.25;;
55216;SDS011;41086;46.736;15.666;2023-04-15T12:22:09;0.55;;;0.30;;
55216;SDS011;41086;46.736;15.666;2023-04-15T12:24:41;0.88;;;0.40;;
55216;SDS011;41086;46.736;15.666;2023-04-15T12:27:15;1.08;;;0.43;;
55216;SDS011;41086;46.736;15.666;2023-04-15T12:29:42;0.20;;;0.20;;
55216;SDS011;41086;46.736;15.666;2023-04-15T12:32:10;0.90;;;0.30;;
55216;SDS011;41086;46.736;15.666;2023-04-15T12:34:50;0.33;;;0.20;;
55216;SDS011;41086;46.736;15.666;2023-04-15T12:37:17;0.40;;;0.25;;
55216;SDS011;41086;46.736;15.666;2023-04-15T12:39:46;1.02;;;0.45;;
55216;SDS011;41086;46.736;15.666;2023-04-15T12:42:17;0.25;;;0.25;;
55216;SDS011;41086;46.736;15.666;2023-04-15T12:44:44;1.10;;;0.50;;
55216;SDS011;41086;46.736;15.666;2023-04-15T12:47:12;0.47;;;0.40;;
55216;SDS011;41086;46.736;15.666;2023-04-15T12:49:39;1.52;;;0.47;;
55216;SDS011;41086;46.736;15.666;2023-04-15T12:52:06;1.75;;;0.80;;
55216;SDS011;41086;46.736;15.666;2023-04-15T12:54:33;0.60;;;0.40;;
55216;SDS011;41086;46.736;15.666;2023-04-15T12:57:01;0.80;;;0.50;;
55216;SDS011;41086;46.736;15.666;2023-04-15T12:59:31;3.30;;;1.00;;
55216;SDS011;41086;46.736;15.666;2023-04-15T13:01:58;0.98;;;0.60;;
55216;SDS011;41086;46.736;15.666;2023-04-15T13:04:26;0.57;;;0.40;;
55216;SDS011;41086;46.736;15.666;2023-04-15T13:06:56;1.90;;;1.33;;
55216;SDS011;41086;46.736;15.666;2023-04-15T13:09:23;5.53;;;3.65;;
55216;SDS011;41086;46.736;15.666;2023-04-15T13:11:49;2.95;;;1.77;;
55216;SDS011;41086;46.736;15.666;2023-04-15T13:14:19;4.35;;;2.63;;
55216;SDS011;41086;46.736;15.666;2023-04-15T13:16:46;1.10;;;0.65;;
55216;SDS011;41086;46.736;15.666;2023-04-15T13:19:13;1.30;;;0.75;;
55216;SDS011;41086;46.736;15.666;2023-04-15T13:21:40;1.27;;;0.50;;
55216;SDS011;41086;46.736;15.666;2023-04-15T13:24:07;1.02;;;0.73;;
55216;SDS011;41086;46.736;15.666;2023-04-15T13:26:35;1.73;;;0.82;;
55216;SDS011;41086;46.736;15.666;2023-04-15T13:29:03;1.20;;;0.93;;
55216;SDS011;41086;46.736;15.666;2023-04-15T13:33:56;3.13;;;0.73;;
55216;SDS011;41086;46.736;15.666;2023-04-15T13:36:23;1.08;;;0.60;;
55216;SDS011;41086;46.736;15.666;2023-04-15T13:38:50;2.22;;;0.75;;
55216;SDS011;41086;46.736;15.666;2023-04-15T13:43:43;1.80;;;0.93;;
55216;SDS011;41086;46.736;15.666;2023-04-15T13:48:37;4.13;;;0.55;;
55216;SDS011;41086;46.736;15.666;2023-04-15T13:51:04;1.40;;;0.40;;
55216;SDS011;41086;46.736;15.666;2023-04-15T13:53:31;0.68;;;0.50;;
55216;SDS011;41086;46.736;15.666;2023-04-15T13:56:05;2.28;;;0.57;;
55216;SDS011;41086;46.736;15.666;2023-04-15T13:58:33;1.50;;;0.68;;
55216;SDS011;41086;46.736;15.666;2023-04-15T14:03:30;2.35;;;0.65;;
55216;SDS011;41086;46.736;15.666;2023-04-15T14:05:58;1.23;;;0.70;;
55216;SDS011;41086;46.736;15.666;2023-04-15T14:08:24;1.17;;;0.50;;
55216;SDS011;41086;46.736;15.666;2023-04-15T14:10:51;1.48;;;0.70;;
55216;SDS011;41086;46.736;15.666;2023-04-15T14:15:45;0.55;;;0.43;;
55216;SDS011;41086;46.736;15.666;2023-04-15T14:18:12;1.10;;;0.50;;
55216;SDS011;41086;46.736;15.666;2023-04-15T14:20:39;0.52;;;0.40;;
55216;SDS011;41086;46.736;15.666;2023-04-15T14:23:09;1.40;;;0.82;;
55216;SDS011;41086;46.736;15.666;2023-04-15T14:25:36;1.58;;;0.60;;
55216;SDS011;41086;46.736;15.666;2023-04-15T14:28:08;2.35;;;0.60;;
55216;SDS011;41086;46.736;15.666;2023-04-15T14:30:36;0.88;;;0.65;;
55216;SDS011;41086;46.736;15.666;2023-04-15T14:33:04;1.05;;;0.50;;
55216;SDS011;41086;46.736;15.666;2023-04-15T14:35:31;0.85;;;0.47;;
55216;SDS011;41086;46.736;15.666;2023-04-15T14:37:59;4.00;;;0.50;;
55216;SDS011;41086;46.736;15.666;2023-04-15T14:40:26;1.05;;;0.52;;
55216;SDS011;41086;46.736;15.666;2023-04-15T14:42:53;1.52;;;0.70;;
55216;SDS011;41086;46.736;15.666;2023-04-15T14:45:20;1.80;;;1.13;;
55216;SDS011;41086;46.736;15.666;2023-04-15T14:47:46;2.60;;;0.80;;
55216;SDS011;41086;46.736;15.666;2023-04-15T14:52:40;4.10;;;0.68;;
55216;SDS011;41086;46.736;15.666;2023-04-15T14:55:11;0.98;;;0.47;;
55216;SDS011;41086;46.736;15.666;2023-04-15T14:57:38;5.93;;;0.77;;
55216;SDS011;41086;46.736;15.666;2023-04-15T15:00:07;1.58;;;0.60;;
55216;SDS011;41086;46.736;15.666;2023-04-15T15:02:36;1.90;;;0.63;;
55216;SDS011;41086;46.736;15.666;2023-04-15T15:05:05;2.63;;;0.75;;
55216;SDS011;41086;46.736;15.666;2023-04-15T15:07:33;2.08;;;0.60;;
55216;SDS011;41086;46.736;15.666;2023-04-15T15:10:02;3.03;;;0.70;;
55216;SDS011;41086;46.736;15.666;2023-04-15T15:14:56;1.42;;;0.80;;
55216;SDS011;41086;46.736;15.666;2023-04-15T15:17:23;3.45;;;0.60;;
55216;SDS011;41086;46.736;15.666;2023-04-15T15:19:49;1.48;;;0.75;;
55216;SDS011;41086;46.736;15.666;2023-04-15T15:24:46;1.58;;;0.63;;
55216;SDS011;41086;46.736;15.666;2023-04-15T15:27:13;1.38;;;0.50;;
55216;SDS011;41086;46.736;15.666;2023-04-15T15:29:40;0.50;;;0.40;;
55216;SDS011;41086;46.736;15.666;2023-04-15T15:32:07;1.42;;;0.80;;
55216;SDS011;41086;46.736;15.666;2023-04-15T15:34:33;1.23;;;0.60;;
55216;SDS011;41086;46.736;15.666;2023-04-15T15:37:00;1.27;;;0.40;;
55216;SDS011;41086;46.736;15.666;2023-04-15T15:39:27;0.73;;;0.50;;
55216;SDS011;41086;46.736;15.666;2023-04-15T15:41:54;2.30;;;0.60;;
55216;SDS011;41086;46.736;15.666;2023-04-15T15:44:20;0.73;;;0.68;;
55216;SDS011;41086;46.736;15.666;2023-04-15T15:46:48;1.13;;;0.60;;
55216;SDS011;41086;46.736;15.666;2023-04-15T15:49:15;1.08;;;0.63;;
55216;SDS011;41086;46.736;15.666;2023-04-15T15:51:42;1.25;;;0.68;;
55216;SDS011;41086;46.736;15.666;2023-04-15T15:54:09;0.88;;;0.68;;
55216;SDS011;41086;46.736;15.666;2023-04-15T15:56:37;0.75;;;0.50;;
55216;SDS011;41086;46.736;15.666;2023-04-15T15:59:04;1.30;;;0.63;;
55216;SDS011;41086;46.736;15.666;2023-04-15T16:01:33;0.82;;;0.52;;
55216;SDS011;41086;46.736;15.666;2023-04-15T16:03:59;2.17;;;0.70;;